createdAt,value
2018-06-03T00:00:50.818Z,61.50
2018-06-03T00:01:52.936Z,61.40
2018-06-03T00:02:55.062Z,61.30
2018-06-03T00:03:57.195Z,61.40
2018-06-03T00:04:59.304Z,61.50
2018-06-03T00:06:01.463Z,61.50
2018-06-03T00:07:03.587Z,61.50
2018-06-03T00:08:05.714Z,62.20
2018-06-03T00:09:07.870Z,62.50
2018-06-03T00:10:09.990Z,62.10
2018-06-03T00:11:12.094Z,61.90
2018-06-03T00:12:14.224Z,61.90
2018-06-03T00:13:16.372Z,62.00
2018-06-03T00:14:18.507Z,62.00
2018-06-03T00:15:20.621Z,62.00
2018-06-03T00:16:22.730Z,62.00
2018-06-03T00:18:26.992Z,62.00
2018-06-03T00:19:29.097Z,62.20
2018-06-03T00:20:42.789Z,62.20
2018-06-03T00:21:50.250Z,62.30
2018-06-03T00:22:53.080Z,62.20
2018-06-03T00:23:55.239Z,63.10
2018-06-03T00:24:57.419Z,62.40
2018-06-03T00:25:59.578Z,62.40
2018-06-03T00:28:04.071Z,62.40
2018-06-03T00:29:06.265Z,62.40
2018-06-03T00:30:08.431Z,62.40
2018-06-03T00:31:10.603Z,62.70
2018-06-03T00:32:12.816Z,62.70
2018-06-03T00:33:14.994Z,62.70
2018-06-03T00:34:17.160Z,62.90
2018-06-03T00:35:19.327Z,62.90
2018-06-03T00:36:33.179Z,63.00
2018-06-03T00:37:35.372Z,62.90
2018-06-03T00:38:37.562Z,62.70
2018-06-03T00:39:39.735Z,62.50
2018-06-03T00:40:41.898Z,62.70
2018-06-03T00:41:44.110Z,63.00
2018-06-03T00:42:46.286Z,63.10
2018-06-03T00:44:50.659Z,63.40
2018-06-03T00:45:52.822Z,63.40
2018-06-03T00:46:54.999Z,63.30
2018-06-03T00:47:57.179Z,63.30
2018-06-03T00:50:01.555Z,63.30
2018-06-03T00:51:03.758Z,63.30
2018-06-03T00:52:05.934Z,63.70
2018-06-03T00:53:08.098Z,63.60
2018-06-03T00:54:10.266Z,63.50
2018-06-03T00:55:12.426Z,63.50
2018-06-03T00:56:24.986Z,63.40
2018-06-03T00:57:27.147Z,63.30
2018-06-03T00:58:29.359Z,63.60
2018-06-03T00:59:31.523Z,64.30
2018-06-03T01:00:33.729Z,63.60
2018-06-03T01:01:35.895Z,63.60
2018-06-03T01:02:38.080Z,63.60
2018-06-03T01:03:40.282Z,63.50
2018-06-03T01:04:42.452Z,63.50
2018-06-03T01:05:44.614Z,63.40
2018-06-03T01:06:46.792Z,63.70
2018-06-03T01:07:48.980Z,63.70
2018-06-03T01:08:51.155Z,63.70
2018-06-03T01:09:53.318Z,63.70
2018-06-03T01:10:55.496Z,64.00
2018-06-03T01:11:57.669Z,64.00
2018-06-03T01:14:02.091Z,64.00
2018-06-03T01:15:04.297Z,64.10
2018-06-03T01:16:06.482Z,64.30
2018-06-03T01:17:08.671Z,64.30
2018-06-03T01:18:10.847Z,64.40
2018-06-03T01:19:13.015Z,64.30
2018-06-03T01:20:15.209Z,64.50
2018-06-03T01:21:17.379Z,64.50
2018-06-03T01:23:21.764Z,64.70
2018-06-03T01:24:23.951Z,64.40
2018-06-03T01:25:26.145Z,64.40
2018-06-03T01:26:28.315Z,64.50
2018-06-03T01:27:30.495Z,64.50
2018-06-03T01:28:32.705Z,64.50
2018-06-03T01:29:34.889Z,64.40
2018-06-03T01:30:37.059Z,64.60
2018-06-03T01:31:39.247Z,64.70
2018-06-03T01:32:41.411Z,64.70
2018-06-03T01:33:43.635Z,64.70
2018-06-03T01:34:45.808Z,64.60
2018-06-03T01:35:47.987Z,64.70
2018-06-03T01:36:50.188Z,64.60
2018-06-03T01:37:52.354Z,64.50
2018-06-03T01:38:54.534Z,64.70
2018-06-03T01:39:56.698Z,64.70
2018-06-03T01:40:58.867Z,64.70
2018-06-03T01:42:01.038Z,64.90
2018-06-03T01:43:03.238Z,65.00
2018-06-03T01:44:05.415Z,65.00
2018-06-03T01:45:07.582Z,65.00
2018-06-03T01:46:09.750Z,65.20
2018-06-03T01:47:11.912Z,65.50
2018-06-03T01:48:14.102Z,65.60
2018-06-03T01:49:16.278Z,65.80
2018-06-03T01:50:18.442Z,65.70
2018-06-03T01:51:20.614Z,65.90
2018-06-03T01:52:22.776Z,65.70
2018-06-03T01:53:24.954Z,65.70
2018-06-03T01:54:27.130Z,65.80
2018-06-03T01:55:29.303Z,65.70
2018-06-03T01:56:31.487Z,66.40
2018-06-03T01:57:33.651Z,65.70
2018-06-03T01:58:35.820Z,65.80
2018-06-03T01:59:38.003Z,65.80
2018-06-03T02:00:40.159Z,65.60
2018-06-03T02:01:42.332Z,65.70
2018-06-03T02:02:44.507Z,65.80
2018-06-03T02:04:48.895Z,65.90
2018-06-03T02:05:51.046Z,65.90
2018-06-03T02:06:53.237Z,66.00
2018-06-03T02:07:55.430Z,66.00
2018-06-03T02:08:57.614Z,66.20
2018-06-03T02:09:59.790Z,66.30
2018-06-03T02:11:01.967Z,66.30
2018-06-03T02:12:04.186Z,66.10
2018-06-03T02:13:06.355Z,66.30
2018-06-03T02:14:08.515Z,66.30
2018-06-03T02:15:10.684Z,66.60
2018-06-03T02:16:12.854Z,66.40
2018-06-03T02:17:15.026Z,66.30
2018-06-03T02:18:17.215Z,66.60
2018-06-03T02:19:19.394Z,66.60
2018-06-03T02:20:21.574Z,66.80
2018-06-03T02:21:23.739Z,66.70
2018-06-03T02:22:25.894Z,66.70
2018-06-03T02:23:28.070Z,66.90
2018-06-03T02:25:32.454Z,67.00
2018-06-03T02:26:34.658Z,67.00
2018-06-03T02:27:36.867Z,66.90
2018-06-03T02:28:39.054Z,67.20
2018-06-03T02:29:41.243Z,67.30
2018-06-03T02:30:43.403Z,67.60
2018-06-03T02:31:45.619Z,67.60
2018-06-03T02:32:47.823Z,68.30
2018-06-03T02:33:50.028Z,67.60
2018-06-03T02:34:52.230Z,67.50
2018-06-03T02:35:54.414Z,67.50
2018-06-03T02:36:56.570Z,67.50
2018-06-03T02:37:58.727Z,67.50
2018-06-03T02:39:00.935Z,67.50
2018-06-03T02:40:03.850Z,67.70
2018-06-03T02:41:06.042Z,68.10
2018-06-03T02:42:08.330Z,68.00
2018-06-03T02:43:10.511Z,68.30
2018-06-03T02:44:12.692Z,68.40
2018-06-03T02:45:14.896Z,68.80
2018-06-03T02:47:19.271Z,68.90
2018-06-03T02:48:21.466Z,68.60
2018-06-03T02:49:23.651Z,68.70
2018-06-03T02:50:25.856Z,68.90
2018-06-03T02:51:28.060Z,68.90
2018-06-03T02:52:30.239Z,68.90
2018-06-03T02:53:32.431Z,68.80
2018-06-03T02:54:34.603Z,69.00
2018-06-03T02:55:36.784Z,69.20
2018-06-03T02:56:38.938Z,69.10
2018-06-03T02:57:41.102Z,69.20
2018-06-03T02:59:45.479Z,69.30
2018-06-03T03:00:47.676Z,69.30
2018-06-03T03:01:49.851Z,69.30
2018-06-03T03:02:52.003Z,69.50
2018-06-03T03:03:54.158Z,69.40
2018-06-03T03:04:56.363Z,69.50
2018-06-03T03:05:58.543Z,69.50
2018-06-03T03:07:00.711Z,69.80
2018-06-03T03:08:02.882Z,69.70
2018-06-03T03:10:07.575Z,70.00
2018-06-03T03:11:09.751Z,70.00
2018-06-03T03:12:11.943Z,70.10
2018-06-03T03:13:14.129Z,70.00
2018-06-03T03:14:16.303Z,70.00
2018-06-03T03:15:18.480Z,70.00
2018-06-03T03:16:20.644Z,69.90
2018-06-03T03:17:22.814Z,70.20
2018-06-03T03:18:24.990Z,70.00
2018-06-03T03:19:27.149Z,70.00
2018-06-03T03:20:29.342Z,70.00
2018-06-03T03:21:31.530Z,70.00
2018-06-03T03:22:33.710Z,70.00
2018-06-03T03:23:35.884Z,70.20
2018-06-03T03:24:38.060Z,70.20
2018-06-03T03:25:40.271Z,70.10
2018-06-03T03:27:44.659Z,70.10
2018-06-03T03:28:46.819Z,69.90
2018-06-03T03:29:49.003Z,69.90
2018-06-03T03:30:51.569Z,69.90
2018-06-03T03:31:53.753Z,69.70
2018-06-03T03:32:55.928Z,69.70
2018-06-03T03:33:58.106Z,69.90
2018-06-03T03:35:00.273Z,69.90
2018-06-03T03:36:02.489Z,69.70
2018-06-03T03:37:04.649Z,69.80
2018-06-03T03:38:06.811Z,69.90
2018-06-03T03:39:09.677Z,69.90
2018-06-03T03:40:11.860Z,69.90
2018-06-03T03:41:14.039Z,70.00
2018-06-03T03:42:16.227Z,70.00
2018-06-03T03:44:20.644Z,69.90
2018-06-03T03:46:25.015Z,69.90
2018-06-03T03:47:27.174Z,69.90
2018-06-03T03:48:29.331Z,70.00
2018-06-03T03:49:31.486Z,70.00
2018-06-03T03:50:33.661Z,70.00
2018-06-03T03:51:35.854Z,70.20
2018-06-03T03:52:38.023Z,70.00
2018-06-03T03:53:40.180Z,70.00
2018-06-03T03:54:42.338Z,70.00
2018-06-03T03:55:44.514Z,70.10
2018-06-03T03:56:46.698Z,70.10
2018-06-03T03:57:48.862Z,70.10
2018-06-03T03:58:51.048Z,70.30
2018-06-03T03:59:53.223Z,70.30
2018-06-03T04:00:55.396Z,70.40
2018-06-03T04:03:23.019Z,70.50
2018-06-03T04:04:25.344Z,70.70
2018-06-03T04:05:27.611Z,70.80
2018-06-03T04:06:29.909Z,70.80
2018-06-03T04:07:32.142Z,70.70
2018-06-03T04:08:34.379Z,70.50
2018-06-03T04:09:36.630Z,70.50
2018-06-03T04:10:38.859Z,70.50
2018-06-03T04:11:41.099Z,70.50
2018-06-03T04:13:45.617Z,70.50
2018-06-03T04:14:47.994Z,70.50
2018-06-03T04:15:50.292Z,70.70
2018-06-03T04:16:52.546Z,70.80
2018-06-03T04:17:54.807Z,70.80
2018-06-03T04:18:57.034Z,70.70
2018-06-03T04:21:01.510Z,70.60
2018-06-03T04:22:03.753Z,70.70
2018-06-03T04:23:05.988Z,70.50
2018-06-03T04:24:08.249Z,70.60
2018-06-03T04:25:10.468Z,70.60
2018-06-03T04:26:12.710Z,70.50
2018-06-03T04:27:14.977Z,70.40
2018-06-03T04:28:17.199Z,70.40
2018-06-03T04:29:19.422Z,70.40
2018-06-03T04:30:21.686Z,70.50
2018-06-03T04:31:23.912Z,70.60
2018-06-03T04:32:26.172Z,70.50
2018-06-03T04:33:28.437Z,70.60
2018-06-03T04:34:30.682Z,70.40
2018-06-03T04:35:32.927Z,70.40
2018-06-03T04:36:35.160Z,70.50
2018-06-03T04:37:37.403Z,70.60
2018-06-03T04:38:39.659Z,70.50
2018-06-03T04:39:41.932Z,70.60
2018-06-03T04:40:44.190Z,70.80
2018-06-03T04:41:46.433Z,70.70
2018-06-03T04:42:48.710Z,70.60
2018-06-03T04:43:50.934Z,70.50
2018-06-03T04:44:53.187Z,70.60
2018-06-03T04:45:55.462Z,70.60
2018-06-03T04:46:57.719Z,70.60
2018-06-03T04:47:59.963Z,70.60
2018-06-03T04:49:02.210Z,70.90
2018-06-03T04:50:04.503Z,71.00
2018-06-03T04:52:08.990Z,70.90
2018-06-03T04:53:11.224Z,71.10
2018-06-03T04:54:13.462Z,71.10
2018-06-03T04:55:15.694Z,71.10
2018-06-03T04:57:20.190Z,70.90
2018-06-03T04:58:22.470Z,71.40
2018-06-03T04:59:24.771Z,71.10
2018-06-03T05:00:27.034Z,71.90
2018-06-03T05:01:29.260Z,71.20
2018-06-03T05:02:31.510Z,71.00
2018-06-03T05:03:33.802Z,71.10
2018-06-03T05:04:36.018Z,71.20
2018-06-03T05:05:38.257Z,71.20
2018-06-03T05:06:40.553Z,71.20
2018-06-03T05:07:42.783Z,71.00
2018-06-03T05:08:45.051Z,71.10
2018-06-03T05:09:47.305Z,70.80
2018-06-03T05:10:49.559Z,70.70
2018-06-03T05:11:51.824Z,70.40
2018-06-03T05:12:54.088Z,70.20
2018-06-03T05:13:56.327Z,70.20
2018-06-03T05:14:58.599Z,70.20
2018-06-03T05:16:00.848Z,70.40
2018-06-03T05:17:03.125Z,70.40
2018-06-03T05:18:05.382Z,70.40
2018-06-03T05:19:07.639Z,70.40
2018-06-03T05:20:09.862Z,70.30
2018-06-03T05:21:12.082Z,70.20
2018-06-03T05:22:14.315Z,70.20
2018-06-03T05:23:16.603Z,70.20
2018-06-03T05:24:18.819Z,70.10
2018-06-03T05:25:21.042Z,70.20
2018-06-03T05:26:23.278Z,70.00
2018-06-03T05:27:25.538Z,70.00
2018-06-03T05:28:27.786Z,69.90
2018-06-03T05:29:30.002Z,69.80
2018-06-03T05:30:32.214Z,69.70
2018-06-03T05:31:34.454Z,69.60
2018-06-03T05:32:36.698Z,69.50
2018-06-03T05:33:38.942Z,69.30
2018-06-03T05:34:41.178Z,69.10
2018-06-03T05:36:45.679Z,68.80
2018-06-03T05:37:47.934Z,68.70
2018-06-03T05:38:50.204Z,68.60
2018-06-03T05:39:52.464Z,69.60
2018-06-03T05:40:54.731Z,68.00
2018-06-03T05:42:59.215Z,68.10
2018-06-03T05:44:01.502Z,68.10
2018-06-03T05:45:03.778Z,68.10
2018-06-03T05:46:06.003Z,68.50
2018-06-03T05:47:08.232Z,68.00
2018-06-03T05:48:10.551Z,68.20
2018-06-03T05:49:12.782Z,67.70
2018-06-03T05:50:15.012Z,67.20
2018-06-03T05:51:17.273Z,67.20
2018-06-03T05:52:19.518Z,67.30
2018-06-03T05:53:21.745Z,67.50
2018-06-03T05:54:23.993Z,67.50
2018-06-03T05:55:26.235Z,68.40
2018-06-03T05:56:28.475Z,68.60
2018-06-03T05:57:30.715Z,67.90
2018-06-03T05:58:32.954Z,67.90
2018-06-03T05:59:35.198Z,68.10
2018-06-03T06:00:37.432Z,68.20
2018-06-03T06:01:39.672Z,68.10
2018-06-03T06:02:41.895Z,68.10
2018-06-03T06:03:44.135Z,67.80
2018-06-03T06:04:46.416Z,67.80
2018-06-03T06:05:48.737Z,68.00
2018-06-03T06:06:50.950Z,68.20
2018-06-03T06:07:53.190Z,68.20
2018-06-03T06:08:55.447Z,68.20
2018-06-03T06:09:57.661Z,68.20
2018-06-03T06:10:59.913Z,67.90
2018-06-03T06:12:02.202Z,67.30
2018-06-03T06:13:04.434Z,66.80
2018-06-03T06:14:06.718Z,66.40
2018-06-03T06:15:08.943Z,66.20
2018-06-03T06:16:11.186Z,65.90
2018-06-03T06:17:13.581Z,65.80
2018-06-03T06:18:15.837Z,65.30
2018-06-03T06:19:18.122Z,65.20
2018-06-03T06:20:20.377Z,64.70
2018-06-03T06:21:22.682Z,64.60
2018-06-03T06:22:24.946Z,63.70
2018-06-03T06:23:27.178Z,63.70
2018-06-03T06:24:29.420Z,63.30
2018-06-03T06:25:31.653Z,62.80
2018-06-03T06:26:33.897Z,62.40
2018-06-03T06:27:36.131Z,62.20
2018-06-03T06:28:38.403Z,62.10
2018-06-03T06:29:40.668Z,62.10
2018-06-03T06:30:42.927Z,61.60
2018-06-03T06:31:45.163Z,61.60
2018-06-03T06:32:47.398Z,61.50
2018-06-03T06:33:49.638Z,60.50
2018-06-03T06:34:51.942Z,60.80
2018-06-03T06:35:54.111Z,61.20
2018-06-03T06:36:56.355Z,61.30
2018-06-03T06:37:58.622Z,61.00
2018-06-03T06:39:00.858Z,60.60
2018-06-03T06:40:03.171Z,60.80
2018-06-03T06:41:05.482Z,60.80
2018-06-03T06:42:07.688Z,60.90
2018-06-03T06:43:09.886Z,60.60
2018-06-03T06:44:12.110Z,60.40
2018-06-03T06:45:14.311Z,60.50
2018-06-03T06:46:16.539Z,60.40
2018-06-03T06:47:18.735Z,60.50
2018-06-03T06:48:20.955Z,60.50
2018-06-03T06:49:23.179Z,60.50
2018-06-03T06:50:25.503Z,60.10
2018-06-03T06:51:27.748Z,60.00
2018-06-03T06:52:29.981Z,60.10
2018-06-03T06:53:32.174Z,60.00
2018-06-03T06:54:34.418Z,60.00
2018-06-03T06:55:36.621Z,60.10
2018-06-03T06:56:38.828Z,60.00
2018-06-03T06:57:41.053Z,60.00
2018-06-03T06:58:43.262Z,60.10
2018-06-03T06:59:45.471Z,60.00
2018-06-03T07:00:47.698Z,60.30
2018-06-03T07:01:49.915Z,60.40
2018-06-03T07:02:52.144Z,60.30
2018-06-03T07:04:56.602Z,60.00
2018-06-03T07:05:58.814Z,60.00
2018-06-03T07:07:01.012Z,59.70
2018-06-03T07:08:03.223Z,59.80
2018-06-03T07:09:06.111Z,59.80
2018-06-03T07:10:08.123Z,60.00
2018-06-03T07:11:10.306Z,59.90
2018-06-03T07:12:12.515Z,60.20
2018-06-03T07:13:14.779Z,60.20
2018-06-03T07:14:16.926Z,60.00
2018-06-03T07:15:19.119Z,60.00
2018-06-03T07:16:21.347Z,60.00
2018-06-03T07:17:23.567Z,59.80
2018-06-03T07:18:25.759Z,59.50
2018-06-03T07:19:28.580Z,59.10
2018-06-03T07:20:30.810Z,59.20
2018-06-03T07:21:33.001Z,59.10
2018-06-03T07:22:35.210Z,59.10
2018-06-03T07:23:37.415Z,58.90
2018-06-03T07:24:39.638Z,59.10
2018-06-03T07:25:41.875Z,59.10
2018-06-03T07:26:44.265Z,58.80
2018-06-03T07:28:48.746Z,59.00
2018-06-03T07:30:53.231Z,58.70
2018-06-03T07:31:55.449Z,58.40
2018-06-03T07:32:57.686Z,59.00
2018-06-03T07:33:59.907Z,58.20
2018-06-03T07:35:02.125Z,58.20
2018-06-03T07:36:04.392Z,58.20
2018-06-03T07:37:06.605Z,58.20
2018-06-03T07:38:08.807Z,57.80
2018-06-03T07:39:11.030Z,58.00
2018-06-03T07:40:13.276Z,58.10
2018-06-03T07:41:15.890Z,58.20
2018-06-03T07:42:18.094Z,58.10
2018-06-03T07:43:20.315Z,58.00
2018-06-03T07:44:22.528Z,58.50
2018-06-03T07:45:24.760Z,58.20
2018-06-03T07:46:26.976Z,58.00
2018-06-03T07:47:29.183Z,58.20
2018-06-03T07:48:31.399Z,58.40
2018-06-03T07:49:33.611Z,58.10
2018-06-03T07:50:35.835Z,58.30
2018-06-03T07:51:38.056Z,58.20
2018-06-03T07:52:40.296Z,58.20
2018-06-03T07:53:42.571Z,58.20
2018-06-03T07:54:44.776Z,58.20
2018-06-03T07:55:47.012Z,58.00
2018-06-03T07:56:49.234Z,58.20
2018-06-03T07:57:51.479Z,57.50
2018-06-03T07:58:53.698Z,57.40
2018-06-03T08:01:30.675Z,57.70
2018-06-03T08:02:32.867Z,57.50
2018-06-03T08:03:35.031Z,57.60
2018-06-03T08:04:37.226Z,57.30
2018-06-03T08:05:39.418Z,56.90
2018-06-03T08:06:41.579Z,56.70
2018-06-03T08:07:43.775Z,57.90
2018-06-03T08:08:45.959Z,57.20
2018-06-03T08:09:48.130Z,57.20
2018-06-03T08:10:50.326Z,57.10
2018-06-03T08:11:52.506Z,57.00
2018-06-03T08:12:54.694Z,56.50
2018-06-03T08:14:59.103Z,55.70
2018-06-03T08:17:03.536Z,56.30
2018-06-03T08:18:05.746Z,56.10
2018-06-03T08:19:07.995Z,56.20
2018-06-03T08:20:10.175Z,56.20
2018-06-03T08:21:12.350Z,56.30
2018-06-03T08:22:14.558Z,56.40
2018-06-03T08:23:16.731Z,56.20
2018-06-03T08:24:18.927Z,55.90
2018-06-03T08:25:21.131Z,55.80
2018-06-03T08:26:23.310Z,55.60
2018-06-03T08:27:25.476Z,55.80
2018-06-03T08:28:27.696Z,55.50
2018-06-03T08:29:29.867Z,55.50
2018-06-03T08:30:32.055Z,55.50
2018-06-03T08:31:34.235Z,55.00
2018-06-03T08:32:36.408Z,54.70
2018-06-03T08:33:38.598Z,54.40
2018-06-03T08:34:40.782Z,54.50
2018-06-03T08:35:42.960Z,54.50
2018-06-03T08:36:45.143Z,54.20
2018-06-03T08:37:47.326Z,54.80
2018-06-03T08:38:49.506Z,54.20
2018-06-03T08:39:51.760Z,53.50
2018-06-03T08:40:53.974Z,54.00
2018-06-03T08:41:56.151Z,54.00
2018-06-03T08:42:58.359Z,53.70
2018-06-03T08:44:00.603Z,53.70
2018-06-03T08:45:02.826Z,53.70
2018-06-03T08:46:05.034Z,53.60
2018-06-03T08:47:07.237Z,53.60
2018-06-03T08:48:09.451Z,53.60
2018-06-03T08:49:11.624Z,53.60
2018-06-03T08:50:13.797Z,53.60
2018-06-03T08:51:15.986Z,54.20
2018-06-03T08:52:18.160Z,53.60
2018-06-03T08:53:20.346Z,53.70
2018-06-03T08:54:22.538Z,53.70
2018-06-03T08:55:24.695Z,53.70
2018-06-03T08:56:26.919Z,53.70
2018-06-03T08:57:29.098Z,53.80
2018-06-03T08:58:31.291Z,53.70
2018-06-03T08:59:33.503Z,53.70
2018-06-03T09:00:35.707Z,53.50
2018-06-03T09:01:37.876Z,53.80
2018-06-03T09:02:40.063Z,53.20
2018-06-03T09:03:42.246Z,53.10
2018-06-03T09:04:44.434Z,53.10
2018-06-03T09:05:46.602Z,53.20
2018-06-03T09:06:48.780Z,53.20
2018-06-03T09:07:50.960Z,52.60
2018-06-03T09:08:53.131Z,52.20
2018-06-03T09:09:55.335Z,52.30
2018-06-03T09:11:59.766Z,51.80
2018-06-03T09:13:01.982Z,52.40
2018-06-03T09:14:04.155Z,52.30
2018-06-03T09:15:06.326Z,51.90
2018-06-03T09:16:08.510Z,52.00
2018-06-03T09:17:10.703Z,52.10
2018-06-03T09:19:15.119Z,52.30
2018-06-03T09:21:19.538Z,52.00
2018-06-03T09:23:23.944Z,51.80
2018-06-03T09:24:26.120Z,52.00
2018-06-03T09:25:28.310Z,51.70
2018-06-03T09:26:30.483Z,51.80
2018-06-03T09:27:32.683Z,51.90
2018-06-03T09:28:34.870Z,51.90
2018-06-03T09:29:37.043Z,51.70
2018-06-03T09:30:39.271Z,51.80
2018-06-03T09:32:43.651Z,51.50
2018-06-03T09:33:45.814Z,52.20
2018-06-03T09:34:47.990Z,51.60
2018-06-03T09:35:50.207Z,51.40
2018-06-03T09:36:52.414Z,51.00
2018-06-03T09:37:54.610Z,51.10
2018-06-03T09:38:56.823Z,51.20
2018-06-03T09:39:59.003Z,50.90
2018-06-03T09:41:01.171Z,50.80
2018-06-03T09:42:03.420Z,50.60
2018-06-03T09:43:05.547Z,50.30
2018-06-03T09:44:07.737Z,50.10
2018-06-03T09:45:09.950Z,50.20
2018-06-03T09:46:12.145Z,50.00
2018-06-03T09:47:14.334Z,50.10
2018-06-03T09:48:16.530Z,50.10
2018-06-03T09:49:18.707Z,49.80
2018-06-03T09:50:20.879Z,50.10
2018-06-03T09:51:23.051Z,49.60
2018-06-03T09:52:25.254Z,50.50
2018-06-03T09:53:27.467Z,49.60
2018-06-03T09:54:29.658Z,49.60
2018-06-03T09:55:31.856Z,49.70
2018-06-03T09:56:34.416Z,49.30
2018-06-03T09:57:36.596Z,49.20
2018-06-03T09:58:38.779Z,49.30
2018-06-03T09:59:40.954Z,49.10
2018-06-03T10:00:43.128Z,48.60
2018-06-03T10:01:45.327Z,48.70
2018-06-03T10:02:47.530Z,48.20
2018-06-03T10:03:49.706Z,48.10
2018-06-03T10:04:51.887Z,48.10
2018-06-03T10:05:54.046Z,48.30
2018-06-03T10:07:58.458Z,48.40
2018-06-03T10:09:00.693Z,48.10
2018-06-03T10:10:02.927Z,49.20
2018-06-03T10:11:05.308Z,48.80
2018-06-03T10:12:07.483Z,48.80
2018-06-03T10:13:09.694Z,47.80
2018-06-03T10:14:11.887Z,48.10
2018-06-03T10:15:14.059Z,47.40
2018-06-03T10:16:16.251Z,47.70
2018-06-03T10:17:18.470Z,47.50
2018-06-03T10:18:20.655Z,47.50
2018-06-03T10:19:22.862Z,47.40
2018-06-03T10:21:27.319Z,47.90
2018-06-03T10:22:29.466Z,48.10
2018-06-03T10:23:31.655Z,48.30
2018-06-03T10:24:33.867Z,48.90
2018-06-03T10:25:36.067Z,49.00
2018-06-03T10:26:38.255Z,49.00
2018-06-03T10:27:40.453Z,49.10
2018-06-03T10:28:42.640Z,49.50
2018-06-03T10:30:47.034Z,50.00
2018-06-03T10:31:49.283Z,50.10
2018-06-03T10:32:51.482Z,49.80
2018-06-03T10:34:56.115Z,49.00
2018-06-03T10:35:58.359Z,49.10
2018-06-03T10:37:00.562Z,49.10
2018-06-03T10:38:02.739Z,48.70
2018-06-03T10:39:06.233Z,48.70
2018-06-03T10:40:08.485Z,48.60
2018-06-03T10:41:10.686Z,48.20
2018-06-03T10:43:15.121Z,48.20
2018-06-03T10:44:17.346Z,47.80
2018-06-03T10:45:19.540Z,47.60
2018-06-03T10:46:21.787Z,47.20
2018-06-03T10:47:23.995Z,47.50
2018-06-03T10:48:26.189Z,48.10
2018-06-03T10:49:28.392Z,46.80
2018-06-03T10:50:30.630Z,47.50
2018-06-03T10:51:32.843Z,46.80
2018-06-03T10:52:35.035Z,46.90
2018-06-03T10:53:37.190Z,47.00
2018-06-03T10:55:41.603Z,46.70
2018-06-03T10:57:46.035Z,46.40
2018-06-03T10:58:48.235Z,45.70
2018-06-03T10:59:50.426Z,46.40
2018-06-03T11:00:52.623Z,45.30
2018-06-03T11:01:54.947Z,44.90
2018-06-03T11:02:57.177Z,45.60
2018-06-03T11:03:59.375Z,46.20
2018-06-03T11:05:01.566Z,45.70
2018-06-03T11:06:03.808Z,45.80
2018-06-03T11:07:06.008Z,46.40
2018-06-03T11:08:08.200Z,45.60
2018-06-03T11:09:10.582Z,45.40
2018-06-03T11:10:12.778Z,45.20
2018-06-03T11:11:15.023Z,44.50
2018-06-03T11:12:17.238Z,44.50
2018-06-03T11:13:19.415Z,45.10
2018-06-03T11:14:21.590Z,44.90
2018-06-03T11:15:23.811Z,44.90
2018-06-03T11:16:25.999Z,44.50
2018-06-03T11:17:28.205Z,44.20
2018-06-03T11:18:30.362Z,44.30
2018-06-03T11:19:32.531Z,43.90
2018-06-03T11:20:34.751Z,43.70
2018-06-03T11:21:36.997Z,43.40
2018-06-03T11:22:39.190Z,43.50
2018-06-03T11:23:41.351Z,42.60
2018-06-03T11:24:43.551Z,42.90
2018-06-03T11:25:45.727Z,43.60
2018-06-03T11:26:47.937Z,43.30
2018-06-03T11:27:50.114Z,43.10
2018-06-03T11:28:52.301Z,42.80
2018-06-03T11:29:55.490Z,43.00
2018-06-03T11:31:59.902Z,43.20
2018-06-03T11:33:02.062Z,43.60
2018-06-03T11:34:04.307Z,44.70
2018-06-03T11:35:06.497Z,43.60
2018-06-03T11:36:08.695Z,43.40
2018-06-03T11:37:10.927Z,43.30
2018-06-03T11:38:13.127Z,43.10
2018-06-03T11:39:15.315Z,42.30
2018-06-03T11:40:17.522Z,42.80
2018-06-03T11:41:19.711Z,42.60
2018-06-03T11:43:24.118Z,42.60
2018-06-03T11:45:28.567Z,43.00
2018-06-03T11:46:30.768Z,43.10
2018-06-03T11:47:32.966Z,43.40
2018-06-03T11:48:35.143Z,43.90
2018-06-03T11:49:37.323Z,44.30
2018-06-03T11:50:39.510Z,43.10
2018-06-03T11:51:41.706Z,42.70
2018-06-03T11:52:43.866Z,42.90
2018-06-03T11:53:46.090Z,43.50
2018-06-03T11:54:48.228Z,43.50
2018-06-03T11:55:50.439Z,43.20
2018-06-03T11:56:59.195Z,42.90
2018-06-03T11:58:40.804Z,42.80
2018-06-03T11:59:43.763Z,42.40
2018-06-03T12:00:45.960Z,42.30
2018-06-03T12:01:48.204Z,42.00
2018-06-03T12:02:50.358Z,41.80
2018-06-03T12:03:52.538Z,41.10
2018-06-03T12:04:54.740Z,40.90
2018-06-03T12:05:56.955Z,40.90
2018-06-03T12:06:59.145Z,40.50
2018-06-03T12:08:01.369Z,40.20
2018-06-03T12:09:05.283Z,40.00
2018-06-03T12:10:07.470Z,39.40
2018-06-03T12:11:09.651Z,40.20
2018-06-03T12:12:11.837Z,39.90
2018-06-03T12:14:22.927Z,40.00
2018-06-03T12:15:25.110Z,40.00
2018-06-03T12:16:27.283Z,40.20
2018-06-03T12:17:29.465Z,40.60
2018-06-03T12:18:31.639Z,40.20
2018-06-03T12:19:33.814Z,39.70
2018-06-03T12:20:36.008Z,39.50
2018-06-03T12:21:38.210Z,39.20
2018-06-03T12:22:40.427Z,39.60
2018-06-03T12:23:42.607Z,39.50
2018-06-03T12:24:44.790Z,39.60
2018-06-03T12:26:49.217Z,39.60
2018-06-03T12:27:51.386Z,39.80
2018-06-03T12:28:53.594Z,39.70
2018-06-03T12:29:55.784Z,39.70
2018-06-03T12:30:57.955Z,39.20
2018-06-03T12:32:00.171Z,39.20
2018-06-03T12:33:02.355Z,39.20
2018-06-03T12:34:04.523Z,39.10
2018-06-03T12:36:08.925Z,39.10
2018-06-03T12:37:11.119Z,39.40
2018-06-03T12:38:13.336Z,39.50
2018-06-03T12:40:17.903Z,39.20
2018-06-03T12:41:20.121Z,39.50
2018-06-03T12:42:22.294Z,39.80
2018-06-03T12:43:24.499Z,39.90
2018-06-03T12:44:26.777Z,39.50
2018-06-03T12:45:29.007Z,39.70
2018-06-03T12:46:31.215Z,39.70
2018-06-03T12:47:33.421Z,39.80
2018-06-03T12:48:35.614Z,39.70
2018-06-03T12:49:37.819Z,39.20
2018-06-03T12:50:40.003Z,38.80
2018-06-03T12:52:51.049Z,39.20
2018-06-03T12:53:53.230Z,39.30
2018-06-03T12:54:55.410Z,39.20
2018-06-03T12:55:57.607Z,38.80
2018-06-03T12:56:59.814Z,39.00
2018-06-03T12:58:01.995Z,39.00
2018-06-03T12:59:04.239Z,38.40
2018-06-03T13:00:06.454Z,38.10
2018-06-03T13:01:08.683Z,38.30
2018-06-03T13:02:10.842Z,38.20
2018-06-03T13:03:13.111Z,37.50
2018-06-03T13:04:15.261Z,37.50
2018-06-03T13:05:17.447Z,37.00
2018-06-03T13:06:19.638Z,37.20
2018-06-03T13:07:21.842Z,37.20
2018-06-03T13:08:24.071Z,38.40
2018-06-03T13:09:26.278Z,37.30
2018-06-03T13:10:28.463Z,37.50
2018-06-03T13:11:30.653Z,36.60
2018-06-03T13:12:32.824Z,37.00
2018-06-03T13:13:34.994Z,36.90
2018-06-03T13:14:37.187Z,36.90
2018-06-03T13:15:39.367Z,37.00
2018-06-03T13:16:41.554Z,37.50
2018-06-03T13:17:43.738Z,37.40
2018-06-03T13:18:45.915Z,37.40
2018-06-03T13:19:48.115Z,36.60
2018-06-03T13:20:50.327Z,36.70
2018-06-03T13:21:52.534Z,37.10
2018-06-03T13:22:54.719Z,36.90
2018-06-03T13:23:56.898Z,36.50
2018-06-03T13:24:59.111Z,36.70
2018-06-03T13:26:01.361Z,37.00
2018-06-03T13:27:03.558Z,36.40
2018-06-03T13:28:05.804Z,36.40
2018-06-03T13:29:07.983Z,36.00
2018-06-03T13:30:10.178Z,36.70
2018-06-03T13:31:12.367Z,35.90
2018-06-03T13:32:14.567Z,35.50
2018-06-03T13:33:16.786Z,35.90
2018-06-03T13:34:18.979Z,36.10
2018-06-03T13:35:21.166Z,36.00
2018-06-03T13:36:23.348Z,35.60
2018-06-03T13:37:25.567Z,35.80
2018-06-03T13:38:27.745Z,35.80
2018-06-03T13:39:29.923Z,36.10
2018-06-03T13:40:32.125Z,36.20
2018-06-03T13:41:34.287Z,35.90
2018-06-03T13:42:36.467Z,36.50
2018-06-03T13:43:38.663Z,36.10
2018-06-03T13:44:40.828Z,36.50
2018-06-03T13:45:43.015Z,36.50
2018-06-03T13:46:45.202Z,36.10
2018-06-03T13:47:47.382Z,36.10
2018-06-03T13:48:49.563Z,36.10
2018-06-03T13:49:51.727Z,36.10
2018-06-03T13:50:53.931Z,36.10
2018-06-03T13:51:56.111Z,36.20
2018-06-03T13:52:58.352Z,35.90
2018-06-03T13:54:00.540Z,36.30
2018-06-03T13:55:02.767Z,36.40
2018-06-03T13:56:04.942Z,36.00
2018-06-03T13:57:07.135Z,35.70
2018-06-03T13:58:09.330Z,35.70
2018-06-03T13:59:11.538Z,35.40
2018-06-03T14:00:13.731Z,35.40
2018-06-03T14:01:15.906Z,35.50
2018-06-03T14:02:18.094Z,35.40
2018-06-03T14:03:20.283Z,36.30
2018-06-03T14:04:22.526Z,36.00
2018-06-03T14:05:24.716Z,35.60
2018-06-03T14:07:29.116Z,35.20
2018-06-03T14:09:33.546Z,35.00
2018-06-03T14:10:35.746Z,35.30
2018-06-03T14:11:37.956Z,35.10
2018-06-03T14:12:40.123Z,35.40
2018-06-03T14:13:42.295Z,35.50
2018-06-03T14:14:44.487Z,34.80